createdAt,value
2018-02-07T11:25:55.993Z,36.10
2018-02-07T11:28:23.279Z,37.40
2018-02-07T11:30:50.554Z,39.00
2018-02-07T11:33:17.828Z,37.47
2018-02-07T11:35:45.095Z,33.87
2018-02-07T11:38:12.376Z,39.60
2018-02-07T11:40:39.640Z,34.83
2018-02-07T11:43:06.928Z,39.10
2018-02-07T11:45:34.182Z,34.80
2018-02-07T11:48:01.492Z,36.90
2018-02-07T11:50:28.753Z,35.27
2018-02-07T11:52:56.112Z,31.90
2018-02-07T11:55:23.400Z,38.17
2018-02-07T11:57:50.660Z,37.67
2018-02-07T12:00:17.947Z,36.17
2018-02-07T12:02:45.204Z,37.20
2018-02-07T12:05:12.504Z,35.50
2018-02-07T12:07:39.773Z,37.23
2018-02-07T12:10:07.065Z,37.60
2018-02-07T12:12:34.324Z,37.00
2018-02-07T12:15:01.604Z,31.90
2018-02-07T12:17:28.868Z,38.10
2018-02-07T12:19:56.312Z,36.77
2018-02-07T12:22:23.580Z,38.40
2018-02-07T12:24:50.846Z,35.90
2018-02-07T12:27:18.140Z,35.53
2018-02-07T12:29:45.443Z,36.77
2018-02-07T12:32:12.706Z,36.57
2018-02-07T12:34:39.965Z,36.40
2018-02-07T12:37:07.263Z,35.83
2018-02-07T12:39:34.541Z,35.77
2018-02-07T12:42:01.799Z,35.53
2018-02-07T12:44:29.087Z,38.50
2018-02-07T12:46:56.382Z,37.20
2018-02-07T12:49:23.639Z,35.80
2018-02-07T12:51:50.936Z,38.43
2018-02-07T12:54:18.204Z,39.50
2018-02-07T12:56:45.459Z,36.00
2018-02-07T12:59:12.748Z,36.80
2018-02-07T13:01:40.037Z,38.67
2018-02-07T13:04:07.344Z,36.03
2018-02-07T13:06:34.603Z,39.27
2018-02-07T13:09:01.884Z,36.37
2018-02-07T13:11:29.153Z,38.57
2018-02-07T13:13:56.452Z,39.30
2018-02-07T13:16:23.711Z,40.53
2018-02-07T13:18:50.977Z,37.43
2018-02-07T13:21:18.260Z,35.60
2018-02-07T13:23:45.524Z,36.13
2018-02-07T13:26:12.788Z,39.33
2018-02-07T13:28:40.068Z,36.50
2018-02-07T13:31:07.329Z,38.07
2018-02-07T13:33:34.615Z,36.87
2018-02-07T13:36:01.892Z,37.07
2018-02-07T13:38:29.200Z,39.67
2018-02-07T13:40:56.463Z,38.17
2018-02-07T13:43:23.724Z,36.30
2018-02-07T13:45:51.016Z,38.90
2018-02-07T13:48:18.275Z,37.70
2018-02-07T13:50:45.568Z,35.53
2018-02-07T13:53:12.863Z,37.13
2018-02-07T13:55:40.173Z,34.70
2018-02-07T13:58:07.428Z,36.37
2018-02-07T14:00:40.486Z,36.03
2018-02-07T14:03:07.753Z,36.77
2018-02-07T14:05:35.048Z,36.43
2018-02-07T14:08:02.308Z,38.13
2018-02-07T14:10:29.600Z,35.73
2018-02-07T14:12:56.868Z,39.33
2018-02-07T14:15:24.144Z,38.03
2018-02-07T14:17:51.428Z,37.60
2018-02-07T14:20:18.697Z,37.07
2018-02-07T14:22:46.083Z,33.93
2018-02-07T14:25:13.334Z,36.50
2018-02-07T14:27:40.612Z,34.80
2018-02-07T14:30:07.900Z,35.80
2018-02-07T14:32:35.191Z,35.10
2018-02-07T14:35:02.453Z,32.33
2018-02-07T14:37:29.716Z,33.60
2018-02-07T14:39:57.012Z,33.00
2018-02-07T14:42:24.273Z,34.30
2018-02-07T14:44:51.546Z,31.63
2018-02-07T14:47:18.822Z,33.60
2018-02-07T14:49:46.136Z,32.10
2018-02-07T14:52:13.400Z,32.93
2018-02-07T14:54:40.674Z,32.37
2018-02-07T14:57:08.000Z,33.20
2018-02-07T14:59:35.297Z,33.03
2018-02-07T15:02:02.560Z,33.57
2018-02-07T15:04:29.843Z,33.60
2018-02-07T15:06:57.108Z,31.67
2018-02-07T15:09:24.404Z,32.77
2018-02-07T15:11:51.700Z,31.40
2018-02-07T15:14:18.983Z,31.80
2018-02-07T15:16:46.244Z,33.60
2018-02-07T15:19:13.540Z,33.90
2018-02-07T15:21:40.819Z,33.53
2018-02-07T15:24:08.109Z,33.43
2018-02-07T15:26:35.380Z,33.07
2018-02-07T15:29:02.678Z,31.90
2018-02-07T15:31:29.937Z,31.57
2018-02-07T15:33:57.229Z,31.03
2018-02-07T15:36:24.511Z,31.87
2018-02-07T15:38:51.805Z,32.80
2018-02-07T15:41:19.060Z,31.23
2018-02-07T15:43:46.339Z,33.40
2018-02-07T15:46:13.632Z,33.50
2018-02-07T15:48:40.934Z,32.63
2018-02-07T15:51:08.222Z,34.10
2018-02-07T15:53:35.480Z,33.43
2018-02-07T15:56:02.759Z,31.60
2018-02-07T15:58:30.026Z,32.73
2018-02-07T16:00:57.319Z,32.87
2018-02-07T16:03:24.579Z,30.03
2018-02-07T16:05:51.867Z,31.17
2018-02-07T16:08:19.164Z,30.40
2018-02-07T16:10:46.439Z,31.33
2018-02-07T16:13:13.833Z,30.90
2018-02-07T16:15:41.140Z,29.30
2018-02-07T16:18:08.496Z,37.20
2018-02-07T16:20:35.780Z,41.17
2018-02-07T16:23:03.064Z,44.23
2018-02-07T16:25:30.352Z,39.33
2018-02-07T16:27:57.643Z,41.03
2018-02-07T16:30:24.911Z,45.00
2018-02-07T16:32:52.224Z,47.03
2018-02-07T16:35:19.509Z,48.77
2018-02-07T16:37:46.824Z,46.47
2018-02-07T16:40:14.118Z,47.90
2018-02-07T16:42:41.406Z,46.97
2018-02-07T16:45:08.695Z,48.50
2018-02-07T16:47:35.961Z,50.60
2018-02-07T16:50:03.296Z,49.90
2018-02-07T16:52:30.561Z,53.20
2018-02-07T16:54:57.865Z,49.60
2018-02-07T16:57:25.140Z,55.43
2018-02-07T16:59:52.404Z,53.27
2018-02-07T17:02:19.696Z,51.20
2018-02-07T17:04:46.985Z,52.00
2018-02-07T17:07:14.281Z,51.90
2018-02-07T17:09:41.596Z,53.03
2018-02-07T17:12:08.852Z,50.80
2018-02-07T17:14:36.195Z,50.90
2018-02-07T17:17:03.411Z,47.30
2018-02-07T17:19:30.679Z,54.17
2018-02-07T17:21:57.964Z,48.43
2018-02-07T17:24:25.227Z,50.40
2018-02-07T17:26:53.420Z,51.50
2018-02-07T17:29:20.700Z,51.23
2018-02-07T17:31:47.964Z,50.37
2018-02-07T17:34:15.253Z,59.63
2018-02-07T17:36:42.543Z,54.27
2018-02-07T17:39:09.805Z,50.17
2018-02-07T17:41:37.087Z,50.37
2018-02-07T17:44:04.348Z,49.83
2018-02-07T17:46:31.640Z,52.07
2018-02-07T17:48:58.927Z,48.17
2018-02-07T17:51:26.309Z,55.00
2018-02-07T17:53:53.556Z,47.23
2018-02-07T17:56:20.822Z,50.10
2018-02-07T17:58:48.108Z,50.07
2018-02-07T18:01:15.367Z,48.67
2018-02-07T18:03:42.659Z,49.70
2018-02-07T18:06:09.916Z,47.67
2018-02-07T18:08:37.182Z,48.67
2018-02-07T18:11:04.473Z,51.50
2018-02-07T18:13:31.740Z,49.80
2018-02-07T18:15:59.015Z,50.63
2018-02-07T18:18:26.360Z,49.10
2018-02-07T18:20:53.711Z,56.67
2018-02-07T18:23:21.006Z,49.80
2018-02-07T18:25:48.267Z,49.20
2018-02-07T18:28:15.557Z,45.60
2018-02-07T18:30:42.820Z,46.67
2018-02-07T18:33:10.115Z,49.43
2018-02-07T18:35:37.380Z,50.17
2018-02-07T18:38:04.652Z,55.33
2018-02-07T18:40:31.948Z,56.43
2018-02-07T18:42:59.246Z,51.37
2018-02-07T18:45:26.503Z,49.20
2018-02-07T18:47:53.816Z,52.13
2018-02-07T18:50:21.088Z,58.33
2018-02-07T18:52:48.414Z,49.23
2018-02-07T18:55:15.773Z,47.10
2018-02-07T18:57:43.128Z,47.50
2018-02-07T19:00:10.412Z,52.10
2018-02-07T19:02:37.704Z,49.87
2018-02-07T19:05:04.969Z,52.17
2018-02-07T19:07:32.254Z,49.77
2018-02-07T19:09:59.541Z,49.27
2018-02-07T19:12:26.831Z,53.43
2018-02-07T19:14:54.092Z,51.30
2018-02-07T19:17:21.460Z,50.17
2018-02-07T19:19:48.720Z,52.37
2018-02-07T19:22:16.070Z,55.33
2018-02-07T19:24:43.335Z,56.57
2018-02-07T19:27:10.631Z,51.20
2018-02-07T19:29:37.899Z,52.97
2018-02-07T19:32:05.192Z,51.93
2018-02-07T19:34:32.449Z,53.93
2018-02-07T19:36:59.737Z,50.93
2018-02-07T19:39:27.291Z,54.90
2018-02-07T19:41:54.551Z,63.33
2018-02-07T19:44:21.839Z,58.10
2018-02-07T19:46:49.099Z,53.30
2018-02-07T19:49:16.412Z,51.00
2018-02-07T19:51:43.688Z,51.60
2018-02-07T19:54:10.977Z,55.53
2018-02-07T19:56:38.244Z,55.43
2018-02-07T19:59:05.536Z,54.97
2018-02-07T20:01:33.296Z,53.43
2018-02-07T20:04:00.532Z,52.37
2018-02-07T20:06:27.862Z,52.13
2018-02-07T20:08:55.125Z,54.17
2018-02-07T20:11:22.410Z,53.97
2018-02-07T20:13:49.671Z,56.20
2018-02-07T20:16:16.970Z,52.70
2018-02-07T20:18:44.255Z,48.50
2018-02-07T20:21:11.524Z,52.10
2018-02-07T20:23:38.811Z,54.90
2018-02-07T20:26:06.079Z,51.10
2018-02-07T20:28:33.367Z,59.33
2018-02-07T20:31:00.637Z,58.87
2018-02-07T20:33:27.925Z,50.53
2018-02-07T20:35:55.196Z,49.67
2018-02-07T20:38:22.495Z,51.60
2018-02-07T20:40:49.749Z,49.90
2018-02-07T20:43:17.020Z,58.30
2018-02-07T20:45:44.311Z,50.80
2018-02-07T20:48:11.578Z,47.10
2018-02-07T20:50:38.894Z,47.13
2018-02-07T20:53:06.151Z,46.87
2018-02-07T20:55:33.436Z,52.77
2018-02-07T20:58:00.831Z,48.80
2018-02-07T21:00:28.099Z,47.87
2018-02-07T21:02:55.363Z,47.93
2018-02-07T21:05:22.648Z,49.20
2018-02-07T21:07:49.941Z,56.80
2018-02-07T21:10:17.212Z,47.43
2018-02-07T21:12:44.496Z,49.20
2018-02-07T21:15:11.756Z,48.40
2018-02-07T21:17:39.044Z,55.03
2018-02-07T21:20:06.384Z,46.00
2018-02-07T21:22:33.668Z,49.60
2018-02-07T21:25:00.932Z,46.07
2018-02-07T21:27:28.212Z,47.80
2018-02-07T21:29:55.511Z,47.37
2018-02-07T21:32:22.804Z,50.77
2018-02-07T21:34:50.108Z,48.30
2018-02-07T21:37:17.463Z,48.13
2018-02-07T21:39:44.748Z,49.47
2018-02-07T21:42:12.071Z,46.90
